Flight Track Log - Related Links

Times and Time Zones

All times are in EDT time to prevent confusion due to time zone crossing. See the AAL2384 flight status page for this flight to view local times or setup timezone preferences in your user account.

Time Position Orientation Groundspeed Altitude Reporting Facility
EDT Latitude Longitude Course Direction KTS MPH feet Rate Location/Type
Tue 10:01:40 PM 32.8833 -97.0333 357° North 154 177 1,900  Level Dallas / Fort Worth TRACON
Tue 10:02:28 PM 32.8500 -97.0167 157° South 188 216 3,300 2,278 Climbing Dallas / Fort Worth TRACON
Tue 10:03:28 PM 32.7833 -97.0000 168° South 210 242 6,000 2,700 Climbing Dallas / Fort Worth TRACON
Tue 10:04:00 PM 32.8442 -96.8012 10° North  Level FlightAware Approximate
Tue 10:04:28 PM 32.7667 -96.9333 107° East 231 266 8,700  Level Dallas / Fort Worth TRACON
Tue 10:05:00 PM 32.9605 -96.8000 North  Level FlightAware Approximate
Tue 10:06:00 PM 33.0768 -96.8007 357° North  Level FlightAware Approximate
Tue 10:06:18 PM 32.8175 -96.8225 61° Northeast 244 281 12,600  Level Fort Worth Center
Tue 10:07:00 PM 33.1930 -96.8090 357° North  Level FlightAware Approximate
Tue 10:07:18 PM 32.9156 -96.8122 North 270 311 14,300  Level Fort Worth Center
Tue 10:08:18 PM 33.0156 -96.8114 360° North 327 376 16,700 2,550 Climbing Fort Worth Center
Tue 10:09:18 PM 33.1242 -96.8131 359° North 384 442 19,400 2,450 Climbing Fort Worth Center
Tue 10:10:18 PM 33.2369 -96.8197 357° North 396 456 21,600 1,933 Climbing Fort Worth Center
Tue 10:12:18 PM 33.4664 -96.8158 North 419 482 25,200 1,800 Climbing Fort Worth Center
Tue 10:13:18 PM 33.5767 -96.7453 28° Northeast 435 501 27,000 1,600 Climbing Fort Worth Center
Tue 10:14:18 PM 33.6828 -96.6769 28° Northeast 430 495 28,400 1,300 Climbing Fort Worth Center
Tue 10:15:18 PM 33.7847 -96.6089 29° Northeast 443 510 29,600 1,450 Climbing Fort Worth Center
Tue 10:16:18 PM 33.9053 -96.5300 29° Northeast 443 510 31,300 1,467 Climbing Fort Worth Center
Tue 10:18:18 PM 34.1233 -96.3797 30° Northeast 449 517 34,000 1,200 Climbing Fort Worth Center
Tue 10:19:18 PM 34.2269 -96.2958 34° Northeast 449 517 34,900 500 Climbing Fort Worth Center
Tue 10:20:18 PM 34.3303 -96.2114 34° Northeast 444 511 35,000 50 Climbing Fort Worth Center
Tue 10:21:18 PM 34.4339 -96.1244 35° Northeast 444 511 35,000  Level Fort Worth Center
Tue 10:22:18 PM 34.5414 -96.0369 34° Northeast 449 517 35,000  Level Fort Worth Center
Tue 10:23:18 PM 34.6428 -95.9547 34° Northeast 449 517 35,000  Level Fort Worth Center
Tue 10:24:18 PM 34.7439 -95.8694 35° Northeast 449 517 35,000  Level Fort Worth Center
Tue 10:26:33 PM 34.9700 -95.6692 36° Northeast 448 516 35,000  Level Kansas City Center
Tue 10:27:34 PM 35.0681 -95.5758 38° Northeast 447 514 35,000  Level Kansas City Center
Tue 10:28:35 PM 35.1672 -95.4833 37° Northeast 447 514 35,000  Level Kansas City Center
Tue 10:29:37 PM 35.2642 -95.3900 38° Northeast 446 513 35,000  Level Kansas City Center
Tue 10:30:38 PM 35.3625 -95.2978 37° Northeast 445 512 35,000  Level Kansas City Center
Tue 10:31:39 PM 35.4619 -95.2022 38° Northeast 452 520 35,000  Level Kansas City Center
Tue 10:32:41 PM 35.5617 -95.1078 38° Northeast 453 521 35,000  Level Kansas City Center
Tue 10:33:42 PM 35.6589 -95.0139 38° Northeast 450 518 35,000  Level Kansas City Center
Tue 10:34:45 PM 35.7756 -94.9039 37° Northeast 442 509 35,000  Level Memphis Center
Tue 10:35:45 PM 35.8747 -94.8094 38° Northeast 437 503 35,000  Level Memphis Center
Tue 10:36:45 PM 35.9700 -94.7144 39° Northeast 437 503 35,000  Level Memphis Center
Tue 10:38:48 PM 36.1575 -94.5289 39° Northeast 437 503 35,000  Level Kansas City Center
Tue 10:39:49 PM 36.2533 -94.4356 38° Northeast 438 504 35,000  Level Kansas City Center
Tue 10:40:51 PM 36.3486 -94.3422 38° Northeast 438 504 35,000  Level Kansas City Center
Tue 10:41:52 PM 36.4447 -94.2483 38° Northeast 439 505 35,000  Level Kansas City Center
Tue 10:42:53 PM 36.5406 -94.1556 38° Northeast 438 504 35,000  Level Kansas City Center
Tue 10:43:54 PM 36.6533 -94.0425 39° Northeast 435 501 35,000  Level Kansas City Center
Tue 10:44:55 PM 36.7467 -93.9494 39° Northeast 432 497 35,000  Level Kansas City Center
Tue 10:45:56 PM 36.8403 -93.8550 39° Northeast 431 496 35,000  Level Kansas City Center
Tue 10:46:58 PM 36.9231 -93.7669 40° Northeast 426 490 35,000  Level Kansas City Center
Tue 10:47:59 PM 37.0178 -93.6750 38° Northeast 428 493 35,000  Level Kansas City Center
Tue 10:49:00 PM 37.1111 -93.5797 39° Northeast 431 496 35,000  Level Kansas City Center
Tue 10:50:01 PM 37.2058 -93.4853 38° Northeast 432 497 35,000  Level Kansas City Center
Tue 10:51:02 PM 37.3203 -93.3728 38° Northeast 433 498 35,000  Level Kansas City Center
Tue 10:52:03 PM 37.4125 -93.2800 39° Northeast 428 493 35,000  Level Kansas City Center
Tue 10:54:05 PM 37.6064 -93.1025 36° Northeast 429 494 35,000  Level Kansas City Center
Tue 10:55:06 PM 37.7044 -93.0114 36° Northeast 433 498 35,000  Level Kansas City Center
Tue 10:56:07 PM 37.8025 -92.9194 37° Northeast 436 502 35,000  Level Kansas City Center
Tue 10:57:08 PM 37.8997 -92.8300 36° Northeast 431 496 35,000  Level Kansas City Center
Tue 10:58:09 PM 38.0003 -92.7350 37° Northeast 432 497 35,000  Level Kansas City Center
Tue 10:59:10 PM 38.0978 -92.6422 37° Northeast 435 501 35,000  Level Kansas City Center
Tue 11:00:11 PM 38.1956 -92.5503 36° Northeast 436 502 35,000  Level Kansas City Center
Tue 11:01:12 PM 38.2936 -92.4589 36° Northeast 433 498 35,000  Level Kansas City Center
Tue 11:02:13 PM 38.3917 -92.3631 37° Northeast 439 505 35,000  Level Kansas City Center
Tue 11:03:14 PM 38.4889 -92.2689 37° Northeast 436 502 35,000  Level Kansas City Center
Tue 11:04:15 PM 38.5869 -92.1747 37° Northeast 437 503 35,000  Level Kansas City Center
Tue 11:05:16 PM 38.6844 -92.0800 37° Northeast 437 503 35,000  Level Kansas City Center
Tue 11:06:17 PM 38.7819 -91.9858 37° Northeast 437 503 35,000  Level Kansas City Center
Tue 11:07:18 PM 38.8806 -91.8914 37° Northeast 439 505 35,000  Level Kansas City Center
Tue 11:08:19 PM 38.9797 -91.7964 37° Northeast 442 509 35,000  Level Kansas City Center
Tue 11:09:20 PM 39.0775 -91.7022 37° Northeast 439 505 35,000  Level Kansas City Center
Tue 11:10:21 PM 39.1708 -91.6136 36° Northeast 442 509 35,000  Level Kansas City Center
Tue 11:11:22 PM 39.2889 -91.4975 37° Northeast 445 512 35,000  Level Kansas City Center
Tue 11:12:23 PM 39.3878 -91.4008 37° Northeast 445 512 35,000  Level Kansas City Center
Tue 11:13:24 PM 39.4853 -91.3044 37° Northeast 443 510 35,000  Level Kansas City Center
Tue 11:14:25 PM 39.5844 -91.2056 38° Northeast 445 512 35,000  Level Kansas City Center
Tue 11:15:26 PM 39.6831 -91.1072 37° Northeast 445 512 35,000  Level Kansas City Center
Tue 11:16:27 PM 39.7778 -91.0125 38° Northeast 443 510 35,000  Level Kansas City Center
Tue 11:17:28 PM 39.8731 -90.9172 37° Northeast 442 509 35,000  Level Kansas City Center
Tue 11:18:29 PM 39.9719 -90.8178 38° Northeast 447 514 35,000  Level Kansas City Center
Tue 11:19:30 PM 40.0700 -90.7172 38° Northeast 447 514 35,000  Level Kansas City Center
Tue 11:19:58 PM 40.1283 -90.6581 38° Northeast 447 514 35,000  Level Chicago Center
Tue 11:20:59 PM 40.2272 -90.5572 38° Northeast 446 513 35,000  Level Chicago Center
Tue 11:21:59 PM 40.3256 -90.4561 38° Northeast 448 516 35,000 -248 Level Chicago Center
Tue 11:23:00 PM 40.4244 -90.3544 38° Northeast 450 518 34,500 -787 Descending Chicago Center
Tue 11:24:01 PM 40.5244 -90.2533 38° Northeast 451 519 33,400 -1,415 Descending Chicago Center
Tue 11:25:03 PM 40.6217 -90.1461 40° Northeast 452 520 31,600 -1,770 Descending Chicago Center
Tue 11:26:03 PM 40.7228 -90.0414 38° Northeast 459 528 29,800 -1,800 Descending Chicago Center
Tue 11:27:03 PM 40.8300 -89.9369 36° Northeast 470 541 28,000 -1,785 Descending Chicago Center
Tue 11:28:04 PM 40.9300 -89.8317 38° Northeast 461 531 26,200 -1,869 Descending Chicago Center
Tue 11:29:05 PM 41.0353 -89.7208 38° Northeast 450 518 24,200 -1,082 Descending Chicago Center
Tue 11:30:06 PM 41.1333 -89.6183 38° Northeast 449 517 24,000 -590 Descending Chicago Center
Tue 11:31:07 PM 41.2069 -89.4803 55° Northeast 460 529 23,000 -1,623 Descending Chicago Center
Tue 11:32:08 PM 41.2656 -89.3336 62° Northeast 451 519 20,700 -2,281 Descending Chicago Center
Tue 11:33:08 PM 41.3261 -89.1814 62° Northeast 430 495 18,400 -2,380 Descending Chicago Center
Tue 11:34:09 PM 41.3783 -89.0472 63° Northeast 414 476 15,900 -2,311 Descending Chicago Center
Tue 11:35:10 PM 41.4319 -88.9133 62° Northeast 410 472 13,700 -2,115 Descending Chicago Center
Tue 11:36:11 PM 41.4811 -88.7889 62° Northeast 387 445 11,600 -1,328 Descending Chicago Center
Tue 11:37:12 PM 41.5278 -88.6658 63° Northeast 376 433 11,000 -295 Descending Chicago Center
Tue 11:38:13 PM 41.5747 -88.5456 62° Northeast 367 422 11,000  Level Chicago Center
Tue 11:39:13 PM 41.6283 -88.4283 59° Northeast 370 426 11,000  Level Chicago Center
Tue 11:40:14 PM 41.6928 -88.3206 51° Northeast 369 425 11,000 -197 Level Chicago Center
Tue 11:41:15 PM 41.7494 -88.2233 52° Northeast 331 381 10,600 -934 Descending Chicago Center
Tue 11:42:16 PM 41.8236 -88.1586 33° Northeast 323 372 9,100 -1,368 Descending Chicago Center
Tue 11:43:09 PM 41.9000 -88.1000 30° Northeast 317 365 8,000 -584 Descending Chicago TRACON
Tue 11:44:09 PM 41.9833 -88.0500 24° Northeast 320 368 8,000  Level Chicago TRACON
Tue 11:45:15 PM 42.0667 -87.9833 31° Northeast 295 339 8,000 -350 Level Chicago TRACON
Tue 11:46:09 PM 42.1167 -87.9333 37° Northeast 239 275 7,300 -1,140 Descending Chicago TRACON
Tue 11:47:16 PM 42.1667 -87.8833 37° Northeast 222 255 5,700 -1,289 Descending Chicago TRACON
Tue 11:48:10 PM 42.2167 -87.8333 37° Northeast 236 272 4,700 -895 Descending Chicago TRACON
Tue 11:49:10 PM 42.2000 -87.7500 105° East 196 226 4,000 -542 Descending Chicago TRACON
Tue 11:51:00 PM 42.0387 -87.8820 211° Southwest  Level FlightAware Approximate
Tue 11:55:22 PM 42.0000 -87.8833 180° South 124 143 800  Level Chicago TRACON
Tue 11:58:00 PM 41.9817 -87.9067 180° South  Level Estimated
Tue 11:59:00 PM 41.9817 -87.9067 180° South  Level Estimated
Wed 12:00:00 AM 41.9817 -87.9067 180° South  Level Estimated

Login

Don't have an account? Register now (free) for customized features, flight alerts, and more!